Time;durP1;ratioP1;P1;durP2;ratioP2;P2;SDS_P1;SDS_P2;PMS_P1;PMS_P2;Temp;Humidity;BMP_temperature;BMP_pressure;BME280_temperature;BME280_humidity;BME280_pressure;Samples;Min_cycle;Max_cycle;Signal;HPM_P1;HPM_P2
2023/02/07 00:01:11;;;;;;;20.10;4.13;;;3.70;99.90;;;;;;5031311;28;20034;-39
2023/02/07 00:03:36;;;;;;;22.58;4.72;;;3.60;99.90;;;;;;5028551;28;20032;-36
2023/02/07 00:06:11;;;;;;;11.90;3.50;;;3.60;99.90;;;;;;5026729;28;20034;-38
2023/02/07 00:08:37;;;;;;;15.88;4.15;;;3.60;99.90;;;;;;5032781;28;20470;-37
2023/02/07 00:11:08;;;;;;;13.57;5.30;;;3.60;99.90;;;;;;5027585;28;20029;-36
2023/02/07 00:13:35;;;;;;;8.23;3.92;;;3.60;99.90;;;;;;5029431;28;20478;-33
2023/02/07 00:16:02;;;;;;;18.52;4.13;;;3.60;99.90;;;;;;5033405;28;20087;-35
2023/02/07 00:18:28;;;;;;;15.32;3.85;;;3.60;99.90;;;;;;5034282;28;20116;-35
2023/02/07 00:20:58;;;;;;;10.40;3.72;;;3.60;99.90;;;;;;5034289;28;20432;-39
2023/02/07 00:23:24;;;;;;;9.90;3.70;;;3.50;99.90;;;;;;5031603;28;20547;-38
2023/02/07 00:25:49;;;;;;;11.98;3.85;;;3.50;99.90;;;;;;5033773;28;20029;-37
2023/02/07 00:28:15;;;;;;;13.95;4.22;;;3.50;99.90;;;;;;5026743;28;20045;-38
2023/02/07 00:30:41;;;;;;;16.98;4.78;;;3.50;99.90;;;;;;5032153;28;20036;-38
2023/02/07 00:33:06;;;;;;;10.50;4.28;;;3.40;99.90;;;;;;5029169;28;20394;-36
2023/02/07 00:35:32;;;;;;;15.35;4.03;;;3.40;99.90;;;;;;5028205;28;20067;-37
2023/02/07 00:37:58;;;;;;;11.50;3.42;;;3.30;99.90;;;;;;5028607;28;20033;-34
2023/02/07 00:40:23;;;;;;;13.32;4.07;;;3.30;99.90;;;;;;5032245;28;20052;-37
2023/02/07 00:42:49;;;;;;;10.00;4.10;;;3.30;99.90;;;;;;5030836;28;20242;-36
2023/02/07 00:45:15;;;;;;;14.55;3.85;;;3.30;99.90;;;;;;5023136;28;20113;-37
2023/02/07 00:47:40;;;;;;;33.97;4.93;;;3.30;99.90;;;;;;5029616;28;20433;-35
2023/02/07 00:50:06;;;;;;;18.05;4.50;;;3.30;99.90;;;;;;5021724;28;20025;-40
2023/02/07 00:52:32;;;;;;;15.10;4.85;;;3.30;99.90;;;;;;5027755;28;20501;-39
2023/02/07 00:54:58;;;;;;;12.60;4.38;;;3.30;99.90;;;;;;5032774;28;20049;-41
2023/02/07 00:57:23;;;;;;;13.63;4.65;;;3.30;99.90;;;;;;5025938;28;20120;-41
2023/02/07 00:59:49;;;;;;;18.70;4.95;;;3.30;99.90;;;;;;5029242;28;20069;-43
2023/02/07 01:02:14;;;;;;;18.08;4.40;;;3.20;99.90;;;;;;5033345;28;20029;-41
2023/02/07 01:04:40;;;;;;;11.32;3.78;;;3.10;99.90;;;;;;5033435;28;20064;-44
2023/02/07 01:07:06;;;;;;;11.68;3.78;;;3.10;99.90;;;;;;5032654;28;20064;-39
2023/02/07 01:09:32;;;;;;;10.07;4.03;;;3.00;99.90;;;;;;5031685;28;20032;-41
2023/02/07 01:11:58;;;;;;;14.25;4.55;;;3.00;99.90;;;;;;5027141;28;20387;-44
2023/02/07 01:14:23;;;;;;;10.70;4.03;;;3.00;99.90;;;;;;5021523;28;20029;-41
2023/02/07 01:16:49;;;;;;;12.32;4.30;;;3.00;99.90;;;;;;5022036;28;20453;-41
2023/02/07 01:19:16;;;;;;;14.05;4.80;;;2.90;99.90;;;;;;5026792;28;20091;-43
2023/02/07 01:21:41;;;;;;;14.77;4.10;;;2.90;99.90;;;;;;5030345;28;20084;-40
2023/02/07 01:24:08;;;;;;;24.65;6.63;;;2.90;99.90;;;;;;5031808;28;20470;-42
2023/02/07 01:26:35;;;;;;;10.60;3.63;;;2.80;99.90;;;;;;5031434;28;20021;-41
2023/02/07 01:29:01;;;;;;;15.05;4.60;;;2.80;99.90;;;;;;5023023;28;20025;-42
2023/02/07 01:31:27;;;;;;;11.70;4.90;;;2.80;99.90;;;;;;5024409;28;20026;-40
2023/02/07 01:33:58;;;;;;;8.73;4.65;;;2.70;99.90;;;;;;5028738;28;20508;-42
2023/02/07 01:36:24;;;;;;;12.65;4.03;;;2.70;99.90;;;;;;5031562;28;20440;-41
2023/02/07 01:38:52;;;;;;;13.95;4.10;;;2.70;99.90;;;;;;5032375;28;20030;-39
2023/02/07 01:41:19;;;;;;;10.10;4.40;;;2.70;99.90;;;;;;5033735;28;20521;-42
2023/02/07 01:44:23;;;;;;;16.48;4.88;;;2.70;99.90;;;;;;5017284;28;20024;-42
2023/02/07 01:46:50;;;;;;;17.35;4.40;;;2.70;99.90;;;;;;5015324;28;20055;-43
2023/02/07 01:49:20;;;;;;;10.02;3.53;;;2.70;99.90;;;;;;5032252;28;20475;-42
2023/02/07 01:51:51;;;;;;;14.00;4.63;;;2.70;99.90;;;;;;5032486;28;20079;-42
2023/02/07 01:54:19;;;;;;;15.20;4.80;;;2.70;99.90;;;;;;5059957;28;20124;-40
2023/02/07 01:56:49;;;;;;;14.77;4.25;;;2.70;99.90;;;;;;5033277;28;20033;-42
2023/02/07 01:59:15;;;;;;;17.42;4.80;;;2.60;99.90;;;;;;5027364;28;20026;-43
2023/02/07 02:01:42;;;;;;;12.00;4.45;;;2.70;99.90;;;;;;5019905;28;20525;-42
2023/02/07 02:04:08;;;;;;;15.88;3.90;;;2.60;99.90;;;;;;5012946;28;20168;-41
2023/02/07 02:06:34;;;;;;;19.67;4.97;;;2.60;99.90;;;;;;5030105;28;20462;-40
2023/02/07 02:09:06;;;;;;;12.82;4.80;;;2.60;99.90;;;;;;5032224;28;20030;-38
2023/02/07 02:12:05;;;;;;;16.23;6.20;;;2.60;99.90;;;;;;5016599;28;20034;-38
2023/02/07 02:14:36;;;;;;;20.30;4.70;;;2.60;99.90;;;;;;5026263;28;20025;-32
2023/02/07 02:17:33;;;;;;;18.38;4.57;;;2.50;99.90;;;;;;5032943;28;20555;-36
2023/02/07 02:20:18;;;;;;;11.82;4.28;;;2.50;99.90;;;;;;5031336;28;20053;-41
2023/02/07 02:23:04;;;;;;;23.33;4.53;;;2.50;99.90;;;;;;5031798;28;20041;-40
2023/02/07 02:26:04;;;;;;;27.52;6.70;;;2.50;99.90;;;;;;5029672;28;20053;-44
2023/02/07 02:28:37;;;;;;;19.15;6.47;;;2.50;99.90;;;;;;5025303;28;20489;-36
2023/02/07 02:31:40;;;;;;;15.25;6.15;;;2.70;99.90;;;;;;5025413;28;20057;-41
2023/02/07 02:34:31;;;;;;;20.67;6.78;;;2.90;99.90;;;;;;5027636;28;20029;-43
2023/02/07 02:37:06;;;;;;;24.42;6.75;;;2.90;99.90;;;;;;5032768;28;20041;-40
2023/02/07 02:40:07;;;;;;;22.30;6.80;;;2.80;99.90;;;;;;5033487;28;20491;-41
2023/02/07 02:42:49;;;;;;;19.83;7.50;;;2.70;99.90;;;;;;5024927;28;20441;-38
2023/02/07 02:45:20;;;;;;;19.27;6.60;;;2.70;99.90;;;;;;5026760;28;20036;-34
2023/02/07 02:47:49;;;;;;;21.02;7.13;;;2.80;99.90;;;;;;5035876;28;20048;-40
2023/02/07 02:50:21;;;;;;;23.75;7.20;;;2.80;99.90;;;;;;5035588;28;20022;-42
2023/02/07 02:52:46;;;;;;;30.13;7.90;;;2.80;99.90;;;;;;5034391;28;20063;-43
2023/02/07 02:55:13;;;;;;;23.02;7.07;;;3.00;99.90;;;;;;5036015;28;20100;-40
2023/02/07 02:58:14;;;;;;;17.58;7.18;;;3.00;99.90;;;;;;5033894;28;20030;-41
2023/02/07 03:01:11;;;;;;;25.80;7.82;;;3.00;99.90;;;;;;5010700;28;20053;-39
2023/02/07 03:03:49;;;;;;;21.80;5.45;;;3.20;99.90;;;;;;5021611;28;20049;-39
2023/02/07 03:06:17;;;;;;;29.02;7.10;;;3.20;99.90;;;;;;5016522;28;20042;-41
2023/02/07 03:08:58;;;;;;;20.75;7.65;;;3.20;99.90;;;;;;5031413;28;20033;-33
2023/02/07 03:11:25;;;;;;;23.38;7.75;;;3.20;99.90;;;;;;5034943;28;20108;-41
2023/02/07 03:14:06;;;;;;;28.35;8.18;;;3.30;99.90;;;;;;5023649;28;20429;-40
2023/02/07 03:16:34;;;;;;;20.88;8.00;;;3.20;99.90;;;;;;5016318;28;20038;-41
2023/02/07 03:19:07;;;;;;;24.25;8.05;;;3.00;99.90;;;;;;5026404;28;20121;-34
2023/02/07 03:21:47;;;;;;;22.42;7.32;;;2.90;99.90;;;;;;5030416;28;20021;-43
2023/02/07 03:24:25;;;;;;;17.70;7.75;;;2.90;99.90;;;;;;5031996;28;20037;-42
2023/02/07 03:26:56;;;;;;;21.00;7.55;;;2.90;99.90;;;;;;5035985;28;20033;-41
2023/02/07 03:29:23;;;;;;;25.30;7.82;;;2.80;99.90;;;;;;5022597;28;20080;-42
2023/02/07 03:31:57;;;;;;;27.17;8.07;;;2.80;99.90;;;;;;5031812;28;20057;-40
2023/02/07 03:34:42;;;;;;;18.48;6.82;;;2.90;99.90;;;;;;5020906;28;20063;-40
2023/02/07 03:37:35;;;;;;;31.88;9.32;;;2.90;99.90;;;;;;5035542;28;20037;-37
2023/02/07 03:40:03;;;;;;;26.40;9.15;;;2.90;99.90;;;;;;5031111;28;20037;-40
2023/02/07 03:43:00;;;;;;;24.77;7.90;;;2.90;99.90;;;;;;5031961;28;20553;-38
2023/02/07 03:45:26;;;;;;;24.60;8.13;;;2.90;99.90;;;;;;5023918;28;20049;-35
2023/02/07 03:47:52;;;;;;;25.80;7.57;;;2.90;99.90;;;;;;5034467;28;20397;-39
2023/02/07 03:50:18;;;;;;;20.67;7.53;;;2.90;99.90;;;;;;5034453;28;20026;-39
2023/02/07 03:52:43;;;;;;;24.75;8.23;;;2.90;99.90;;;;;;5034158;28;20049;-38
2023/02/07 03:55:10;;;;;;;25.55;8.02;;;2.90;99.90;;;;;;5033372;28;20030;-34
2023/02/07 03:57:36;;;;;;;14.68;7.15;;;2.80;99.90;;;;;;5033079;28;20030;-37
2023/02/07 04:00:03;;;;;;;29.80;8.35;;;2.80;99.90;;;;;;5030182;28;20099;-37
2023/02/07 04:02:29;;;;;;;21.63;8.40;;;2.80;99.90;;;;;;5034540;28;20370;-38
2023/02/07 04:04:54;;;;;;;30.10;7.47;;;2.80;99.90;;;;;;5026743;28;20053;-37
2023/02/07 04:07:20;;;;;;;19.40;7.70;;;2.60;99.90;;;;;;5034441;28;20112;-37
2023/02/07 04:09:45;;;;;;;26.63;8.18;;;2.50;99.90;;;;;;5033160;28;20025;-40
2023/02/07 04:12:11;;;;;;;26.67;7.63;;;2.50;99.90;;;;;;5035203;28;20032;-41
2023/02/07 04:14:36;;;;;;;16.10;6.38;;;2.40;99.90;;;;;;5026936;28;20103;-37
2023/02/07 04:17:02;;;;;;;19.85;8.02;;;2.30;99.90;;;;;;5033499;28;20597;-40
2023/02/07 04:19:28;;;;;;;18.33;6.07;;;2.30;99.90;;;;;;5034097;28;20033;-39
2023/02/07 04:21:53;;;;;;;18.17;6.45;;;2.20;99.90;;;;;;5019374;28;20390;-41
2023/02/07 04:24:19;;;;;;;20.02;6.00;;;2.20;99.90;;;;;;5029769;28;20025;-41
2023/02/07 04:26:44;;;;;;;20.80;6.40;;;2.10;99.90;;;;;;5033282;28;20040;-43
2023/02/07 04:29:10;;;;;;;18.70;6.75;;;2.00;99.90;;;;;;5026453;28;20200;-37
2023/02/07 04:31:36;;;;;;;15.00;6.18;;;1.90;99.90;;;;;;5031991;28;20026;-43
2023/02/07 04:34:03;;;;;;;21.92;7.05;;;1.90;99.90;;;;;;5033778;28;20045;-43
2023/02/07 04:36:29;;;;;;;15.70;6.32;;;1.90;99.90;;;;;;5032865;28;20493;-42
2023/02/07 04:38:55;;;;;;;24.52;8.20;;;1.90;99.90;;;;;;5034920;28;20025;-39
2023/02/07 04:41:21;;;;;;;13.55;5.97;;;1.80;99.90;;;;;;5032533;28;20474;-38
2023/02/07 04:43:46;;;;;;;18.42;7.50;;;1.80;99.90;;;;;;5029947;28;20544;-40
2023/02/07 04:46:12;;;;;;;15.93;6.18;;;1.80;99.90;;;;;;5027335;28;20565;-41
2023/02/07 04:48:38;;;;;;;19.98;6.65;;;1.80;99.90;;;;;;5034180;28;20076;-40
2023/02/07 04:51:05;;;;;;;13.75;6.28;;;1.70;99.90;;;;;;5032659;28;20501;-41
2023/02/07 04:53:30;;;;;;;23.80;7.18;;;1.70;99.90;;;;;;5034118;28;20028;-41
2023/02/07 04:55:56;;;;;;;20.95;6.68;;;1.70;99.90;;;;;;5030564;28;20474;-38
2023/02/07 04:58:22;;;;;;;26.40;7.13;;;1.60;99.90;;;;;;5031946;28;20025;-36
2023/02/07 05:00:48;;;;;;;26.02;7.97;;;1.60;99.90;;;;;;5028647;28;20305;-36
2023/02/07 05:03:14;;;;;;;15.95;6.25;;;1.60;99.90;;;;;;5032069;28;20486;-40
2023/02/07 05:05:41;;;;;;;17.30;6.70;;;1.70;99.90;;;;;;5025288;28;20040;-38
2023/02/07 05:08:07;;;;;;;18.30;7.72;;;1.80;99.90;;;;;;5026307;28;20045;-40
2023/02/07 05:10:33;;;;;;;20.02;6.28;;;1.70;99.90;;;;;;5026210;28;20029;-38
2023/02/07 05:12:58;;;;;;;17.63;6.75;;;1.70;99.90;;;;;;5031184;28;20013;-33
2023/02/07 05:15:24;;;;;;;21.52;7.00;;;1.60;99.90;;;;;;5030461;28;20052;-36
2023/02/07 05:17:51;;;;;;;22.15;7.38;;;1.60;99.90;;;;;;5028777;28;20046;-39
2023/02/07 05:20:17;;;;;;;17.40;7.45;;;1.60;99.90;;;;;;5019922;28;20033;-40
2023/02/07 05:22:43;;;;;;;20.13;8.13;;;1.50;99.90;;;;;;5028869;28;20500;-38
2023/02/07 05:25:08;;;;;;;23.30;7.63;;;1.50;99.90;;;;;;5025041;28;20042;-35
2023/02/07 05:27:34;;;;;;;23.98;8.13;;;1.50;99.90;;;;;;5014594;28;20036;-37
2023/02/07 05:30:00;;;;;;;27.95;8.70;;;1.50;99.90;;;;;;5024543;28;20494;-35
2023/02/07 05:35:10;;;;;;;23.25;8.50;;;1.50;99.90;;;;;;5031477;28;20043;-40
2023/02/07 05:37:36;;;;;;;26.55;8.07;;;1.50;99.90;;;;;;5014764;28;20423;-39
2023/02/07 05:40:02;;;;;;;31.02;9.98;;;1.60;99.90;;;;;;5020984;28;20080;-40
2023/02/07 05:45:12;;;;;;;23.00;7.22;;;1.80;99.90;;;;;;5030559;28;20095;-40
2023/02/07 05:47:37;;;;;;;21.00;8.95;;;1.80;99.90;;;;;;5032834;28;20029;-40
2023/02/07 05:50:03;;;;;;;26.02;9.00;;;1.80;99.90;;;;;;5026706;28;20021;-40
2023/02/07 05:52:29;;;;;;;31.58;10.82;;;1.80;99.90;;;;;;5029804;28;20045;-43
2023/02/07 05:54:55;;;;;;;25.90;9.85;;;1.80;99.90;;;;;;5031817;28;20037;-40
2023/02/07 05:57:20;;;;;;;26.45;8.98;;;1.80;99.90;;;;;;5032221;28;20026;-41
2023/02/07 05:59:46;;;;;;;28.83;8.65;;;1.70;99.90;;;;;;5028589;28;20041;-39
2023/02/07 06:02:12;;;;;;;24.95;9.10;;;1.70;99.90;;;;;;5031101;28;20474;-40
2023/02/07 06:04:37;;;;;;;31.75;9.68;;;1.70;99.90;;;;;;5028987;28;20022;-35
2023/02/07 06:07:04;;;;;;;30.55;9.40;;;1.70;99.90;;;;;;5032499;28;20035;-41
2023/02/07 06:09:29;;;;;;;33.70;10.70;;;1.70;99.90;;;;;;5029018;28;20033;-41
2023/02/07 06:11:55;;;;;;;29.77;10.63;;;1.70;99.90;;;;;;5032977;28;20588;-41
2023/02/07 06:14:21;;;;;;;27.65;10.25;;;1.70;99.90;;;;;;5016065;28;20018;-41
2023/02/07 06:16:47;;;;;;;29.75;9.60;;;1.60;99.90;;;;;;5028965;28;20036;-42
2023/02/07 06:19:13;;;;;;;20.90;9.60;;;1.60;99.90;;;;;;5024638;28;20464;-41
2023/02/07 06:21:39;;;;;;;27.13;9.45;;;1.60;99.90;;;;;;5033135;28;20520;-40
2023/02/07 06:24:05;;;;;;;39.38;10.70;;;1.60;99.90;;;;;;5031278;28;20050;-36
2023/02/07 06:26:30;;;;;;;37.20;10.63;;;1.60;99.90;;;;;;5033149;28;20072;-39
2023/02/07 06:28:56;;;;;;;23.23;9.38;;;1.50;99.90;;;;;;5029962;28;20438;-40
2023/02/07 06:31:22;;;;;;;38.03;9.63;;;1.40;99.90;;;;;;5026929;28;20026;-35
2023/02/07 06:33:48;;;;;;;25.33;8.77;;;1.50;99.90;;;;;;5028810;28;20100;-36
2023/02/07 06:36:13;;;;;;;30.05;10.77;;;1.50;99.90;;;;;;5030754;28;20025;-33
2023/02/07 06:38:39;;;;;;;28.50;10.15;;;1.50;99.90;;;;;;5032420;28;20617;-38
2023/02/07 06:41:07;;;;;;;33.08;10.32;;;1.50;99.90;;;;;;5031365;28;20029;-37
2023/02/07 06:43:32;;;;;;;28.60;9.65;;;1.40;99.90;;;;;;5030087;28;20029;-39
2023/02/07 06:45:58;;;;;;;25.10;10.35;;;1.40;99.90;;;;;;5026196;28;20025;-38
2023/02/07 06:48:24;;;;;;;39.22;9.80;;;1.40;99.90;;;;;;5013135;28;20030;-40
2023/02/07 06:50:50;;;;;;;40.58;10.38;;;1.40;99.90;;;;;;5032903;28;20063;-41
2023/02/07 06:53:16;;;;;;;29.10;10.63;;;1.40;99.90;;;;;;5031906;28;20029;-41
2023/02/07 06:55:42;;;;;;;37.58;11.15;;;1.40;99.90;;;;;;5016963;28;20042;-39
2023/02/07 06:58:08;;;;;;;22.85;8.98;;;1.30;99.90;;;;;;5025651;28;20072;-40
2023/02/07 07:00:34;;;;;;;23.92;9.57;;;1.30;99.90;;;;;;5030167;28;20490;-36
2023/02/07 07:03:00;;;;;;;27.60;11.45;;;1.20;99.90;;;;;;5019985;28;20034;-39
2023/02/07 07:05:28;;;;;;;28.40;11.00;;;1.20;99.90;;;;;;5020801;28;20037;-38
2023/02/07 07:08:17;;;;;;;34.10;10.98;;;1.20;99.90;;;;;;5013836;28;20030;-41
2023/02/07 07:10:42;;;;;;;27.23;10.40;;;1.20;99.90;;;;;;5030513;28;20074;-40
2023/02/07 07:13:08;;;;;;;29.55;10.45;;;1.30;99.90;;;;;;5025521;28;20518;-34
2023/02/07 07:15:34;;;;;;;30.90;10.77;;;1.30;99.90;;;;;;5028023;28;20463;-36
2023/02/07 07:17:59;;;;;;;41.13;11.07;;;1.30;99.90;;;;;;5021666;28;20048;-39
2023/02/07 07:20:25;;;;;;;24.00;9.70;;;1.30;99.90;;;;;;5032259;28;20025;-36
2023/02/07 07:22:50;;;;;;;28.55;10.10;;;1.20;99.90;;;;;;5031270;28;20116;-36
2023/02/07 07:25:17;;;;;;;37.80;11.52;;;1.20;99.90;;;;;;5026701;28;20026;-37
2023/02/07 07:27:42;;;;;;;33.90;11.57;;;1.20;99.90;;;;;;5025193;28;20486;-37
2023/02/07 07:30:09;;;;;;;34.85;11.73;;;1.20;99.90;;;;;;5031757;28;20033;-40
2023/02/07 07:32:35;;;;;;;32.65;11.57;;;1.20;99.90;;;;;;5029417;28;20500;-38
2023/02/07 07:35:01;;;;;;;41.90;10.70;;;1.20;99.90;;;;;;5035991;28;20025;-37
2023/02/07 07:37:27;;;;;;;34.47;11.10;;;1.10;99.90;;;;;;5034882;28;20474;-39
2023/02/07 07:39:53;;;;;;;44.55;11.73;;;1.20;99.90;;;;;;5034240;28;20076;-40
2023/02/07 07:42:18;;;;;;;32.25;12.13;;;1.20;99.90;;;;;;5033988;28;20497;-40
2023/02/07 07:44:44;;;;;;;34.95;11.27;;;1.30;99.90;;;;;;5024178;28;20026;-37
2023/02/07 07:47:09;;;;;;;27.42;11.60;;;1.30;99.90;;;;;;5023596;28;20025;-39
2023/02/07 07:49:35;;;;;;;38.85;11.15;;;1.40;99.90;;;;;;5034828;28;20025;-37
2023/02/07 07:52:01;;;;;;;26.52;11.00;;;1.40;99.90;;;;;;5031602;28;20129;-36
2023/02/07 07:54:26;;;;;;;38.22;11.68;;;1.40;99.90;;;;;;5034081;28;20037;-36
2023/02/07 07:56:52;;;;;;;29.25;11.77;;;1.40;99.90;;;;;;5033079;28;20030;-39
2023/02/07 07:59:18;;;;;;;27.25;10.88;;;1.40;99.90;;;;;;5027487;28;20052;-37
2023/02/07 08:01:43;;;;;;;37.13;11.10;;;1.50;99.90;;;;;;5022565;28;20022;-37
2023/02/07 08:04:09;;;;;;;30.35;10.68;;;1.50;99.90;;;;;;5029877;28;20041;-34
2023/02/07 08:06:35;;;;;;;43.13;12.50;;;1.50;99.90;;;;;;5021628;28;20022;-41
2023/02/07 08:09:00;;;;;;;37.83;12.23;;;1.60;99.90;;;;;;5020935;28;20513;-41
2023/02/07 08:11:26;;;;;;;25.85;10.75;;;1.70;99.90;;;;;;5017039;28;20033;-40
2023/02/07 08:13:52;;;;;;;33.03;12.32;;;1.70;99.90;;;;;;5016024;28;20036;-37
2023/02/07 08:16:17;;;;;;;27.65;11.55;;;1.70;99.90;;;;;;5028759;28;20374;-42
2023/02/07 08:18:43;;;;;;;36.60;11.95;;;1.70;99.90;;;;;;5035010;28;20033;-40
2023/02/07 08:21:09;;;;;;;24.65;9.93;;;1.80;99.90;;;;;;5030175;28;20033;-38
2023/02/07 08:23:35;;;;;;;41.15;11.95;;;2.00;99.90;;;;;;5026287;28;20060;-39
2023/02/07 08:26:02;;;;;;;35.10;10.90;;;2.00;99.90;;;;;;5026000;28;20060;-39
2023/02/07 08:28:29;;;;;;;34.20;12.63;;;2.00;99.90;;;;;;5030172;28;20032;-40
2023/02/07 08:31:02;;;;;;;36.70;11.88;;;2.00;99.90;;;;;;5025966;28;20502;-41
2023/02/07 08:33:27;;;;;;;29.05;10.70;;;2.00;99.90;;;;;;5028019;28;20472;-41
2023/02/07 08:35:53;;;;;;;29.83;11.10;;;2.10;99.90;;;;;;5030882;28;20025;-41
2023/02/07 08:38:19;;;;;;;27.40;11.00;;;2.20;99.90;;;;;;5032418;28;20462;-46
2023/02/07 08:40:45;;;;;;;31.13;11.10;;;2.30;99.90;;;;;;5030138;28;20021;-41
2023/02/07 08:43:12;;;;;;;28.45;10.23;;;2.30;99.90;;;;;;5024360;28;20022;-49
2023/02/07 08:45:45;;;;;;;31.20;10.75;;;2.30;99.90;;;;;;5019774;28;20475;-42
2023/02/07 08:48:10;;;;;;;33.83;10.23;;;2.30;99.90;;;;;;5034136;28;20053;-41
2023/02/07 08:50:36;;;;;;;31.73;12.65;;;2.40;99.90;;;;;;5034293;28;20430;-50
2023/02/07 08:53:02;;;;;;;27.00;11.55;;;2.40;99.90;;;;;;5032291;28;20037;-42
2023/02/07 08:55:27;;;;;;;26.35;9.73;;;2.40;99.90;;;;;;5031757;28;20417;-39
2023/02/07 08:57:53;;;;;;;29.90;10.57;;;2.40;99.90;;;;;;5028912;28;20030;-41
2023/02/07 09:00:19;;;;;;;31.95;12.00;;;2.40;99.90;;;;;;5034103;28;20427;-50
2023/02/07 09:02:44;;;;;;;28.45;10.93;;;2.40;99.90;;;;;;5032576;28;20382;-45
2023/02/07 09:05:11;;;;;;;27.02;10.20;;;2.40;99.90;;;;;;5029505;28;20022;-41
2023/02/07 09:07:36;;;;;;;25.23;9.65;;;2.50;99.90;;;;;;5032968;28;20025;-48
2023/02/07 09:10:05;;;;;;;37.55;11.38;;;2.60;99.90;;;;;;5033120;28;20389;-41
2023/02/07 09:12:32;;;;;;;31.98;10.95;;;2.60;99.90;;;;;;5025624;28;20496;-41
2023/02/07 09:14:58;;;;;;;22.40;9.57;;;2.70;99.90;;;;;;5031376;28;20416;-40
2023/02/07 09:17:24;;;;;;;24.52;10.80;;;2.70;99.90;;;;;;5031138;28;20045;-38
2023/02/07 09:19:49;;;;;;;21.52;9.20;;;2.70;99.90;;;;;;5025383;28;20065;-38
2023/02/07 09:22:17;;;;;;;26.58;10.38;;;2.80;99.90;;;;;;5031597;28;20036;-38
2023/02/07 09:24:43;;;;;;;32.83;10.93;;;2.80;99.90;;;;;;5030958;28;20474;-37
2023/02/07 09:27:09;;;;;;;29.63;9.60;;;2.90;99.90;;;;;;5033509;28;20044;-36
2023/02/07 09:29:35;;;;;;;26.02;10.77;;;2.90;99.90;;;;;;5026713;28;20048;-35
2023/02/07 09:32:00;;;;;;;21.95;8.80;;;3.00;99.90;;;;;;5027522;28;20037;-38
2023/02/07 09:34:26;;;;;;;25.45;9.30;;;3.10;99.90;;;;;;5015711;28;20409;-37
2023/02/07 09:36:52;;;;;;;25.38;9.57;;;3.10;99.90;;;;;;5032166;28;20049;-36
2023/02/07 09:39:19;;;;;;;18.67;8.20;;;3.10;99.90;;;;;;5028877;28;20477;-39
2023/02/07 09:41:47;;;;;;;27.77;8.25;;;3.20;99.90;;;;;;5031523;28;20355;-37
2023/02/07 09:44:14;;;;;;;25.75;8.82;;;3.20;99.90;;;;;;5021178;28;20049;-36
2023/02/07 09:46:53;;;;;;;13.80;6.00;;;3.30;99.90;;;;;;5031093;28;20026;-37
2023/02/07 09:49:37;;;;;;;24.63;8.70;;;3.30;99.90;;;;;;5028637;28;20082;-38
2023/02/07 09:52:06;;;;;;;26.70;8.98;;;3.40;99.90;;;;;;5033263;28;20085;-39
2023/02/07 09:54:42;;;;;;;22.90;9.35;;;3.30;99.90;;;;;;5027598;28;20048;-35
2023/02/07 09:57:15;;;;;;;19.63;8.13;;;3.40;99.90;;;;;;5033185;28;20018;-37
2023/02/07 09:59:48;;;;;;;27.42;7.63;;;3.40;99.90;;;;;;5033037;28;20028;-38
2023/02/07 10:02:21;;;;;;;23.25;8.23;;;3.40;99.90;;;;;;5030563;28;20034;-40
2023/02/07 10:04:50;;;;;;;18.90;7.43;;;3.50;99.90;;;;;;5025040;28;20021;-41
2023/02/07 10:07:16;;;;;;;29.15;9.50;;;3.60;99.90;;;;;;5015858;28;20043;-40
2023/02/07 10:09:44;;;;;;;21.05;9.07;;;3.70;99.90;;;;;;5012402;28;20034;-38
2023/02/07 10:12:12;;;;;;;20.50;8.43;;;3.70;99.90;;;;;;5017184;28;20033;-35
2023/02/07 10:15:15;;;;;;;22.27;7.63;;;3.80;99.90;;;;;;5015608;28;20018;-41
2023/02/07 10:17:44;;;;;;;18.83;7.43;;;3.80;99.90;;;;;;5013987;28;20552;-37
2023/02/07 10:20:25;;;;;;;20.55;7.53;;;3.90;99.90;;;;;;5032872;28;20486;-39
2023/02/07 10:22:56;;;;;;;20.58;7.72;;;4.00;99.90;;;;;;5015203;28;20525;-39
2023/02/07 10:25:43;;;;;;;24.13;8.25;;;4.20;99.90;;;;;;5012905;28;20475;-40
2023/02/07 10:28:14;;;;;;;25.63;8.70;;;4.20;99.90;;;;;;5025728;28;20052;-36
2023/02/07 10:30:48;;;;;;;17.88;7.38;;;4.20;99.90;;;;;;5033002;28;20537;-37
2023/02/07 10:33:17;;;;;;;17.10;7.70;;;4.30;99.90;;;;;;5024326;28;20026;-40
2023/02/07 10:35:44;;;;;;;17.35;7.78;;;4.30;99.90;;;;;;5013528;28;20101;-38
2023/02/07 10:38:29;;;;;;;17.38;6.88;;;4.40;99.90;;;;;;5024257;28;20552;-38
2023/02/07 10:41:21;;;;;;;20.23;7.85;;;4.40;99.90;;;;;;5024349;28;20414;-34
2023/02/07 10:43:47;;;;;;;13.45;6.05;;;4.50;99.90;;;;;;5028458;28;20168;-47
2023/02/07 10:46:20;;;;;;;20.70;7.32;;;4.60;99.90;;;;;;5032429;28;20486;-41
2023/02/07 10:48:46;;;;;;;14.65;7.32;;;4.70;99.90;;;;;;5031618;28;20489;-40
2023/02/07 10:51:25;;;;;;;20.13;7.25;;;4.80;99.90;;;;;;5032539;28;20097;-40
2023/02/07 10:54:10;;;;;;;18.45;6.95;;;4.70;99.90;;;;;;5032922;28;20478;-31
2023/02/07 10:56:40;;;;;;;11.55;5.90;;;4.80;99.90;;;;;;5029261;28;20026;-46
2023/02/07 10:59:44;;;;;;;12.43;5.70;;;4.90;99.90;;;;;;5031623;28;20029;-47
2023/02/07 11:02:29;;;;;;;13.38;6.45;;;4.80;99.90;;;;;;5036060;28;20025;-49
2023/02/07 11:05:00;;;;;;;13.88;5.90;;;4.90;99.90;;;;;;5036007;28;20040;-48
2023/02/07 11:07:26;;;;;;;14.02;5.28;;;4.90;99.90;;;;;;5036099;28;20481;-40
2023/02/07 11:10:17;;;;;;;14.05;5.60;;;5.00;99.90;;;;;;5036018;28;20033;-41
2023/02/07 11:12:48;;;;;;;10.45;5.75;;;5.00;99.90;;;;;;5031097;28;20429;-38
2023/02/07 11:15:19;;;;;;;13.15;5.32;;;5.10;99.90;;;;;;5035508;28;20381;-42
2023/02/07 11:17:56;;;;;;;12.32;4.88;;;5.10;99.90;;;;;;5029846;28;20535;-40
2023/02/07 11:20:39;;;;;;;12.00;5.07;;;5.10;99.90;;;;;;5036455;28;20477;-41
2023/02/07 11:25:57;;;;;;;14.02;5.03;;;5.20;99.90;;;;;;5028487;28;20593;-36
2023/02/07 11:28:32;;;;;;;10.60;5.22;;;5.20;99.90;;;;;;5035862;28;20112;-38
2023/02/07 11:31:06;;;;;;;11.73;5.07;;;5.20;99.90;;;;;;5034292;28;20049;-38
2023/02/07 11:33:35;;;;;;;10.55;5.38;;;5.30;99.90;;;;;;5025239;28;20053;-35
2023/02/07 11:36:13;;;;;;;11.48;6.20;;;5.30;99.90;;;;;;5022658;28;20061;-36
2023/02/07 11:38:59;;;;;;;9.32;4.88;;;5.40;99.90;;;;;;5029049;28;20370;-38
2023/02/07 11:41:31;;;;;;;6.95;3.67;;;5.40;99.90;;;;;;5023488;28;20108;-37
2023/02/07 11:43:59;;;;;;;10.80;4.72;;;5.40;99.90;;;;;;5015949;28;20509;-36
2023/02/07 11:46:34;;;;;;;7.32;4.28;;;5.40;99.90;;;;;;5030397;28;20037;-36
2023/02/07 11:49:02;;;;;;;10.68;4.15;;;5.40;99.90;;;;;;5033201;28;20540;-39
2023/02/07 11:51:31;;;;;;;9.75;4.35;;;5.50;99.90;;;;;;5033434;28;20034;-37
2023/02/07 11:54:00;;;;;;;11.43;5.35;;;5.50;99.90;;;;;;5035445;28;20473;-36
2023/02/07 11:56:34;;;;;;;9.77;4.45;;;5.50;99.90;;;;;;5035710;28;20474;-35
2023/02/07 11:59:10;;;;;;;12.13;4.90;;;5.50;99.90;;;;;;5035732;28;20060;-49
2023/02/07 12:01:38;;;;;;;9.98;4.78;;;5.60;99.90;;;;;;5025643;28;20033;-40
2023/02/07 12:04:16;;;;;;;9.00;4.75;;;5.60;99.90;;;;;;5026643;28;20033;-41
2023/02/07 12:07:10;;;;;;;10.98;4.90;;;5.70;99.90;;;;;;5024214;28;20065;-37
2023/02/07 12:09:48;;;;;;;7.72;3.75;;;5.60;99.90;;;;;;5025359;28;20084;-40
2023/02/07 12:12:50;;;;;;;10.77;4.60;;;5.70;99.90;;;;;;5025937;28;20036;-40
2023/02/07 12:15:37;;;;;;;18.33;4.53;;;5.80;99.90;;;;;;5035334;28;20493;-40
2023/02/07 12:18:06;;;;;;;;;;;5.90;99.90;;;;;;5020995;28;20052;-41
2023/02/07 12:20:40;;;;;;;8.73;3.75;;;5.90;99.90;;;;;;5028330;28;20364;-41
2023/02/07 12:23:24;;;;;;;9.65;4.95;;;6.00;99.90;;;;;;5021399;28;20508;-39
2023/02/07 12:26:05;;;;;;;10.77;6.82;;;6.00;99.90;;;;;;5047001;28;20034;-38
2023/02/07 12:28:41;;;;;;;9.98;4.88;;;6.00;99.90;;;;;;5019096;28;20029;-41
2023/02/07 12:31:19;;;;;;;16.40;5.68;;;6.10;99.90;;;;;;5025302;28;20080;-40
2023/02/07 12:34:04;;;;;;;11.32;5.15;;;6.20;99.90;;;;;;5034095;28;20026;-41
2023/02/07 12:36:35;;;;;;;8.80;4.90;;;6.20;99.90;;;;;;5034722;28;20028;-38
2023/02/07 12:39:00;;;;;;;9.48;5.28;;;6.30;99.90;;;;;;5033664;28;20032;-40
2023/02/07 12:41:39;;;;;;;12.98;4.75;;;6.40;99.90;;;;;;5034715;28;20478;-42
2023/02/07 12:44:34;;;;;;;9.70;5.00;;;6.40;99.90;;;;;;5030985;28;20394;-41
2023/02/07 12:47:14;;;;;;;9.32;4.45;;;6.40;99.90;;;;;;5033660;28;20465;-39
2023/02/07 12:49:42;;;;;;;7.60;4.25;;;6.40;99.90;;;;;;5034741;28;20068;-41
2023/02/07 12:52:16;;;;;;;9.57;5.35;;;6.40;99.90;;;;;;5034229;28;20496;-40
2023/02/07 12:54:55;;;;;;;10.70;4.97;;;6.40;99.90;;;;;;5029311;28;20076;-40
2023/02/07 12:57:42;;;;;;;10.60;4.53;;;6.40;99.90;;;;;;5024721;28;20156;-40
2023/02/07 13:00:25;;;;;;;10.65;4.55;;;6.50;99.90;;;;;;5034372;28;20026;-39
2023/02/07 13:03:15;;;;;;;9.50;5.10;;;6.50;99.90;;;;;;5034183;28;20028;-39
2023/02/07 13:05:52;;;;;;;8.45;4.32;;;6.70;99.90;;;;;;5034214;28;20072;-38
2023/02/07 13:08:28;;;;;;;16.15;4.95;;;6.70;99.90;;;;;;5031087;28;20021;-32
2023/02/07 13:11:36;;;;;;;12.77;4.57;;;6.70;99.90;;;;;;5029972;28;20030;-35